sensor_id;sensor_type;location;lat;lon;timestamp;temperature;humidity
31967;DHT22;18496;52.042;6.812;2023-05-07T00:02:01;20.20;99.90
31967;DHT22;18496;52.042;6.812;2023-05-07T00:04:05;20.20;99.90
31967;DHT22;18496;52.042;6.812;2023-05-07T00:06:09;20.20;99.90
31967;DHT22;18496;52.042;6.812;2023-05-07T00:08:13;20.20;99.90
31967;DHT22;18496;52.042;6.812;2023-05-07T00:10:17;20.10;99.90
31967;DHT22;18496;52.042;6.812;2023-05-07T00:12:21;20.10;99.90
31967;DHT22;18496;52.042;6.812;2023-05-07T00:14:24;20.10;99.90
31967;DHT22;18496;52.042;6.812;2023-05-07T00:16:28;20.10;99.90
31967;DHT22;18496;52.042;6.812;2023-05-07T00:18:32;20.10;99.90
31967;DHT22;18496;52.042;6.812;2023-05-07T00:20:36;20.00;99.90
31967;DHT22;18496;52.042;6.812;2023-05-07T00:22:39;20.00;99.90
31967;DHT22;18496;52.042;6.812;2023-05-07T00:24:46;20.00;99.90
31967;DHT22;18496;52.042;6.812;2023-05-07T00:26:53;20.00;99.90
31967;DHT22;18496;52.042;6.812;2023-05-07T00:28:57;19.90;99.90
31967;DHT22;18496;52.042;6.812;2023-05-07T00:31:00;20.00;99.90
31967;DHT22;18496;52.042;6.812;2023-05-07T00:33:04;19.90;99.90
31967;DHT22;18496;52.042;6.812;2023-05-07T00:35:08;19.90;99.90
31967;DHT22;18496;52.042;6.812;2023-05-07T00:37:12;19.90;99.90
31967;DHT22;18496;52.042;6.812;2023-05-07T00:39:15;19.80;99.90
31967;DHT22;18496;52.042;6.812;2023-05-07T00:41:19;19.80;99.90
31967;DHT22;18496;52.042;6.812;2023-05-07T00:43:23;19.80;99.90
31967;DHT22;18496;52.042;6.812;2023-05-07T00:45:27;19.70;99.90
31967;DHT22;18496;52.042;6.812;2023-05-07T00:47:31;19.80;99.90
31967;DHT22;18496;52.042;6.812;2023-05-07T00:49:42;19.80;99.90
31967;DHT22;18496;52.042;6.812;2023-05-07T00:51:47;19.80;99.90
31967;DHT22;18496;52.042;6.812;2023-05-07T00:53:50;19.80;99.90
31967;DHT22;18496;52.042;6.812;2023-05-07T00:55:55;19.80;99.90
31967;DHT22;18496;52.042;6.812;2023-05-07T00:58:01;19.80;99.90
31967;DHT22;18496;52.042;6.812;2023-05-07T01:00:06;19.80;99.90
31967;DHT22;18496;52.042;6.812;2023-05-07T01:02:12;19.70;99.90
31967;DHT22;18496;52.042;6.812;2023-05-07T01:04:15;19.70;99.90
31967;DHT22;18496;52.042;6.812;2023-05-07T01:06:20;19.70;99.90
31967;DHT22;18496;52.042;6.812;2023-05-07T01:08:25;19.70;99.90
31967;DHT22;18496;52.042;6.812;2023-05-07T01:10:31;19.70;99.90
31967;DHT22;18496;52.042;6.812;2023-05-07T01:12:38;19.70;99.90
31967;DHT22;18496;52.042;6.812;2023-05-07T01:14:43;19.70;99.90
31967;DHT22;18496;52.042;6.812;2023-05-07T01:16:48;19.80;99.90
31967;DHT22;18496;52.042;6.812;2023-05-07T01:18:55;19.80;99.90
31967;DHT22;18496;52.042;6.812;2023-05-07T01:20:59;19.80;99.90
31967;DHT22;18496;52.042;6.812;2023-05-07T01:23:14;19.70;99.90
31967;DHT22;18496;52.042;6.812;2023-05-07T01:25:18;19.70;99.90
31967;DHT22;18496;52.042;6.812;2023-05-07T01:27:27;19.70;99.90
31967;DHT22;18496;52.042;6.812;2023-05-07T01:29:30;19.80;99.90
31967;DHT22;18496;52.042;6.812;2023-05-07T01:31:34;19.70;99.90
31967;DHT22;18496;52.042;6.812;2023-05-07T01:33:41;19.70;99.90
31967;DHT22;18496;52.042;6.812;2023-05-07T01:35:48;19.80;99.90
31967;DHT22;18496;52.042;6.812;2023-05-07T01:37:53;19.80;99.90
31967;DHT22;18496;52.042;6.812;2023-05-07T01:39:57;19.80;99.90
31967;DHT22;18496;52.042;6.812;2023-05-07T01:42:01;19.80;99.90
31967;DHT22;18496;52.042;6.812;2023-05-07T01:44:05;19.80;99.90
31967;DHT22;18496;52.042;6.812;2023-05-07T01:46:10;19.80;99.90
31967;DHT22;18496;52.042;6.812;2023-05-07T01:48:14;19.80;99.90
31967;DHT22;18496;52.042;6.812;2023-05-07T01:50:19;19.80;99.90
31967;DHT22;18496;52.042;6.812;2023-05-07T01:52:24;19.70;99.90
31967;DHT22;18496;52.042;6.812;2023-05-07T01:54:28;19.70;99.90
31967;DHT22;18496;52.042;6.812;2023-05-07T01:56:34;19.70;99.90
31967;DHT22;18496;52.042;6.812;2023-05-07T01:58:39;19.80;99.90
31967;DHT22;18496;52.042;6.812;2023-05-07T02:00:43;19.80;99.90
31967;DHT22;18496;52.042;6.812;2023-05-07T02:02:47;19.70;99.90
31967;DHT22;18496;52.042;6.812;2023-05-07T02:05:13;19.70;99.90
31967;DHT22;18496;52.042;6.812;2023-05-07T02:07:19;19.70;99.90
31967;DHT22;18496;52.042;6.812;2023-05-07T02:09:23;19.70;99.90
31967;DHT22;18496;52.042;6.812;2023-05-07T02:11:28;19.70;99.90
31967;DHT22;18496;52.042;6.812;2023-05-07T02:13:33;19.70;99.90
31967;DHT22;18496;52.042;6.812;2023-05-07T02:15:38;19.70;99.90
31967;DHT22;18496;52.042;6.812;2023-05-07T02:18:01;19.70;99.90
31967;DHT22;18496;52.042;6.812;2023-05-07T02:20:06;19.60;99.90
31967;DHT22;18496;52.042;6.812;2023-05-07T02:22:10;19.50;99.90
31967;DHT22;18496;52.042;6.812;2023-05-07T02:24:14;19.60;99.90
31967;DHT22;18496;52.042;6.812;2023-05-07T02:26:20;19.60;99.90
31967;DHT22;18496;52.042;6.812;2023-05-07T02:28:25;19.50;99.90
31967;DHT22;18496;52.042;6.812;2023-05-07T02:30:38;19.50;99.90
31967;DHT22;18496;52.042;6.812;2023-05-07T02:32:43;19.50;99.90
31967;DHT22;18496;52.042;6.812;2023-05-07T02:34:46;19.50;99.90
31967;DHT22;18496;52.042;6.812;2023-05-07T02:36:50;19.50;99.90
31967;DHT22;18496;52.042;6.812;2023-05-07T02:38:58;19.50;99.90
31967;DHT22;18496;52.042;6.812;2023-05-07T02:41:01;19.40;99.90
31967;DHT22;18496;52.042;6.812;2023-05-07T02:43:05;19.40;99.90
31967;DHT22;18496;52.042;6.812;2023-05-07T02:45:09;19.40;99.90
31967;DHT22;18496;52.042;6.812;2023-05-07T02:47:15;19.30;99.90
31967;DHT22;18496;52.042;6.812;2023-05-07T02:49:20;19.30;99.90
31967;DHT22;18496;52.042;6.812;2023-05-07T02:51:25;19.30;99.90
31967;DHT22;18496;52.042;6.812;2023-05-07T02:53:32;19.30;99.90
31967;DHT22;18496;52.042;6.812;2023-05-07T02:55:36;19.30;99.90
31967;DHT22;18496;52.042;6.812;2023-05-07T02:57:40;19.30;99.90
31967;DHT22;18496;52.042;6.812;2023-05-07T02:59:44;19.20;99.90
31967;DHT22;18496;52.042;6.812;2023-05-07T03:01:49;19.20;99.90
31967;DHT22;18496;52.042;6.812;2023-05-07T03:03:54;19.20;99.90
31967;DHT22;18496;52.042;6.812;2023-05-07T03:05:58;19.10;99.90
31967;DHT22;18496;52.042;6.812;2023-05-07T03:08:01;19.20;99.90
31967;DHT22;18496;52.042;6.812;2023-05-07T03:10:06;19.20;99.90
31967;DHT22;18496;52.042;6.812;2023-05-07T03:12:10;19.20;99.90
31967;DHT22;18496;52.042;6.812;2023-05-07T03:14:13;19.20;99.90
31967;DHT22;18496;52.042;6.812;2023-05-07T03:16:17;19.10;99.90
31967;DHT22;18496;52.042;6.812;2023-05-07T03:18:21;19.20;99.90
31967;DHT22;18496;52.042;6.812;2023-05-07T03:20:24;19.10;99.90
31967;DHT22;18496;52.042;6.812;2023-05-07T03:22:28;19.00;99.90
31967;DHT22;18496;52.042;6.812;2023-05-07T03:24:32;19.00;99.90
31967;DHT22;18496;52.042;6.812;2023-05-07T03:26:36;19.00;99.90
31967;DHT22;18496;52.042;6.812;2023-05-07T03:28:40;19.00;99.90
31967;DHT22;18496;52.042;6.812;2023-05-07T03:30:48;19.10;99.90
31967;DHT22;18496;52.042;6.812;2023-05-07T03:32:52;19.10;99.90
31967;DHT22;18496;52.042;6.812;2023-05-07T03:34:56;19.10;99.90
31967;DHT22;18496;52.042;6.812;2023-05-07T03:37:00;19.10;99.90
31967;DHT22;18496;52.042;6.812;2023-05-07T03:39:03;19.10;99.90
31967;DHT22;18496;52.042;6.812;2023-05-07T03:41:14;19.20;99.90
31967;DHT22;18496;52.042;6.812;2023-05-07T03:43:18;19.10;99.90
31967;DHT22;18496;52.042;6.812;2023-05-07T03:45:27;19.00;99.90
31967;DHT22;18496;52.042;6.812;2023-05-07T03:47:48;19.00;99.90
31967;DHT22;18496;52.042;6.812;2023-05-07T03:49:55;19.00;99.90
31967;DHT22;18496;52.042;6.812;2023-05-07T03:52:01;18.90;99.90
31967;DHT22;18496;52.042;6.812;2023-05-07T03:54:05;18.90;99.90
31967;DHT22;18496;52.042;6.812;2023-05-07T03:56:10;18.90;99.90
31967;DHT22;18496;52.042;6.812;2023-05-07T03:58:16;18.80;99.90
31967;DHT22;18496;52.042;6.812;2023-05-07T04:00:20;18.80;99.90
31967;DHT22;18496;52.042;6.812;2023-05-07T04:02:24;18.70;99.90
31967;DHT22;18496;52.042;6.812;2023-05-07T04:04:28;18.70;99.90
31967;DHT22;18496;52.042;6.812;2023-05-07T04:06:38;18.70;99.90
31967;DHT22;18496;52.042;6.812;2023-05-07T04:08:42;18.70;99.90
31967;DHT22;18496;52.042;6.812;2023-05-07T04:10:45;18.70;99.90
31967;DHT22;18496;52.042;6.812;2023-05-07T04:12:50;18.60;99.90
31967;DHT22;18496;52.042;6.812;2023-05-07T04:14:58;18.60;99.90
31967;DHT22;18496;52.042;6.812;2023-05-07T04:17:02;18.50;99.90
31967;DHT22;18496;52.042;6.812;2023-05-07T04:19:07;18.50;99.90
31967;DHT22;18496;52.042;6.812;2023-05-07T04:21:16;18.50;99.90
31967;DHT22;18496;52.042;6.812;2023-05-07T04:23:20;18.50;99.90
31967;DHT22;18496;52.042;6.812;2023-05-07T04:25:24;18.40;99.90
31967;DHT22;18496;52.042;6.812;2023-05-07T04:27:32;18.40;99.90
31967;DHT22;18496;52.042;6.812;2023-05-07T04:29:36;18.40;99.90
31967;DHT22;18496;52.042;6.812;2023-05-07T04:31:40;18.30;99.90
31967;DHT22;18496;52.042;6.812;2023-05-07T04:33:44;18.30;99.90
31967;DHT22;18496;52.042;6.812;2023-05-07T04:35:50;18.30;99.90
31967;DHT22;18496;52.042;6.812;2023-05-07T04:37:54;18.30;99.90
31967;DHT22;18496;52.042;6.812;2023-05-07T04:39:58;18.30;99.90
31967;DHT22;18496;52.042;6.812;2023-05-07T04:42:02;18.30;99.90
31967;DHT22;18496;52.042;6.812;2023-05-07T04:44:07;18.30;99.90
31967;DHT22;18496;52.042;6.812;2023-05-07T04:46:13;18.40;99.90
31967;DHT22;18496;52.042;6.812;2023-05-07T04:48:18;18.40;99.90
31967;DHT22;18496;52.042;6.812;2023-05-07T04:50:24;18.30;99.90
31967;DHT22;18496;52.042;6.812;2023-05-07T04:52:32;18.30;99.90
31967;DHT22;18496;52.042;6.812;2023-05-07T04:54:37;18.30;99.90
31967;DHT22;18496;52.042;6.812;2023-05-07T04:56:40;18.40;99.90
31967;DHT22;18496;52.042;6.812;2023-05-07T04:58:47;18.40;99.90
31967;DHT22;18496;52.042;6.812;2023-05-07T05:00:53;18.40;99.90
31967;DHT22;18496;52.042;6.812;2023-05-07T05:02:57;18.40;99.90
31967;DHT22;18496;52.042;6.812;2023-05-07T05:05:01;18.40;99.90
31967;DHT22;18496;52.042;6.812;2023-05-07T05:07:08;18.40;99.90
31967;DHT22;18496;52.042;6.812;2023-05-07T05:09:11;18.40;99.90
31967;DHT22;18496;52.042;6.812;2023-05-07T05:11:18;18.40;99.90
31967;DHT22;18496;52.042;6.812;2023-05-07T05:13:22;18.30;99.90
31967;DHT22;18496;52.042;6.812;2023-05-07T05:15:26;18.40;99.90
31967;DHT22;18496;52.042;6.812;2023-05-07T05:17:29;18.30;99.90
31967;DHT22;18496;52.042;6.812;2023-05-07T05:19:33;18.40;99.90
31967;DHT22;18496;52.042;6.812;2023-05-07T05:21:37;18.40;99.90
31967;DHT22;18496;52.042;6.812;2023-05-07T05:23:44;18.40;99.90
31967;DHT22;18496;52.042;6.812;2023-05-07T05:25:50;18.50;99.90
31967;DHT22;18496;52.042;6.812;2023-05-07T05:27:53;18.50;99.90
31967;DHT22;18496;52.042;6.812;2023-05-07T05:29:58;18.40;99.90
31967;DHT22;18496;52.042;6.812;2023-05-07T05:32:01;18.50;99.90
31967;DHT22;18496;52.042;6.812;2023-05-07T05:34:08;18.40;99.90
31967;DHT22;18496;52.042;6.812;2023-05-07T05:36:13;18.40;99.90
31967;DHT22;18496;52.042;6.812;2023-05-07T05:38:17;18.40;99.90
31967;DHT22;18496;52.042;6.812;2023-05-07T05:40:20;18.40;99.90
31967;DHT22;18496;52.042;6.812;2023-05-07T05:42:24;18.40;99.90
31967;DHT22;18496;52.042;6.812;2023-05-07T05:44:28;18.40;99.90
31967;DHT22;18496;52.042;6.812;2023-05-07T05:46:32;18.30;99.90
31967;DHT22;18496;52.042;6.812;2023-05-07T05:48:35;18.40;99.90
31967;DHT22;18496;52.042;6.812;2023-05-07T05:50:42;18.30;99.90
31967;DHT22;18496;52.042;6.812;2023-05-07T05:52:46;18.40;99.90
31967;DHT22;18496;52.042;6.812;2023-05-07T05:54:53;18.40;99.90
31967;DHT22;18496;52.042;6.812;2023-05-07T05:56:57;18.30;99.90
31967;DHT22;18496;52.042;6.812;2023-05-07T05:59:02;18.30;99.90
31967;DHT22;18496;52.042;6.812;2023-05-07T06:01:06;18.40;99.90
31967;DHT22;18496;52.042;6.812;2023-05-07T06:03:11;18.30;99.90
31967;DHT22;18496;52.042;6.812;2023-05-07T06:05:16;18.30;99.90
31967;DHT22;18496;52.042;6.812;2023-05-07T06:07:20;18.30;99.90
31967;DHT22;18496;52.042;6.812;2023-05-07T06:09:24;18.30;99.90
31967;DHT22;18496;52.042;6.812;2023-05-07T06:11:28;18.30;99.90
31967;DHT22;18496;52.042;6.812;2023-05-07T06:13:32;18.40;99.90
31967;DHT22;18496;52.042;6.812;2023-05-07T06:15:36;18.40;99.90
31967;DHT22;18496;52.042;6.812;2023-05-07T06:17:45;18.40;99.90
31967;DHT22;18496;52.042;6.812;2023-05-07T06:19:49;18.40;99.90
31967;DHT22;18496;52.042;6.812;2023-05-07T06:21:55;18.50;99.90
31967;DHT22;18496;52.042;6.812;2023-05-07T06:24:01;18.40;99.90
31967;DHT22;18496;52.042;6.812;2023-05-07T06:26:05;18.40;99.90
31967;DHT22;18496;52.042;6.812;2023-05-07T06:28:14;18.40;99.90
31967;DHT22;18496;52.042;6.812;2023-05-07T06:30:19;18.40;99.90
31967;DHT22;18496;52.042;6.812;2023-05-07T06:32:23;18.40;99.90
31967;DHT22;18496;52.042;6.812;2023-05-07T06:34:28;18.40;99.90
31967;DHT22;18496;52.042;6.812;2023-05-07T06:36:32;18.50;99.90
31967;DHT22;18496;52.042;6.812;2023-05-07T06:38:40;18.50;99.90
31967;DHT22;18496;52.042;6.812;2023-05-07T06:40:43;18.50;99.90
31967;DHT22;18496;52.042;6.812;2023-05-07T06:42:47;18.50;99.90
31967;DHT22;18496;52.042;6.812;2023-05-07T06:45:08;18.50;99.90
31967;DHT22;18496;52.042;6.812;2023-05-07T06:47:12;18.60;99.90
31967;DHT22;18496;52.042;6.812;2023-05-07T06:49:18;18.60;99.90
31967;DHT22;18496;52.042;6.812;2023-05-07T06:51:22;18.60;99.90
31967;DHT22;18496;52.042;6.812;2023-05-07T06:53:26;18.60;99.90
31967;DHT22;18496;52.042;6.812;2023-05-07T06:55:33;18.70;99.90
31967;DHT22;18496;52.042;6.812;2023-05-07T06:57:37;18.70;99.90
31967;DHT22;18496;52.042;6.812;2023-05-07T06:59:41;18.70;99.90
31967;DHT22;18496;52.042;6.812;2023-05-07T07:01:45;18.70;99.90
31967;DHT22;18496;52.042;6.812;2023-05-07T07:03:50;18.70;99.90
31967;DHT22;18496;52.042;6.812;2023-05-07T07:05:55;18.70;99.90
31967;DHT22;18496;52.042;6.812;2023-05-07T07:07:59;18.70;99.90
31967;DHT22;18496;52.042;6.812;2023-05-07T07:10:03;18.70;99.90
31967;DHT22;18496;52.042;6.812;2023-05-07T07:12:08;18.70;99.90
31967;DHT22;18496;52.042;6.812;2023-05-07T07:14:14;18.70;99.90
31967;DHT22;18496;52.042;6.812;2023-05-07T07:16:23;18.70;99.90
31967;DHT22;18496;52.042;6.812;2023-05-07T07:18:28;18.70;99.90
31967;DHT22;18496;52.042;6.812;2023-05-07T07:20:32;18.70;99.90
31967;DHT22;18496;52.042;6.812;2023-05-07T07:22:36;18.80;99.90
31967;DHT22;18496;52.042;6.812;2023-05-07T07:24:40;18.80;99.90
31967;DHT22;18496;52.042;6.812;2023-05-07T07:26:46;18.80;99.90
31967;DHT22;18496;52.042;6.812;2023-05-07T07:28:50;18.80;99.90
31967;DHT22;18496;52.042;6.812;2023-05-07T07:30:57;18.90;99.90
31967;DHT22;18496;52.042;6.812;2023-05-07T07:33:01;18.90;99.90
31967;DHT22;18496;52.042;6.812;2023-05-07T07:35:08;18.90;99.90
31967;DHT22;18496;52.042;6.812;2023-05-07T07:37:13;18.90;99.90
31967;DHT22;18496;52.042;6.812;2023-05-07T07:39:16;18.90;99.90
31967;DHT22;18496;52.042;6.812;2023-05-07T07:41:21;18.90;99.90
31967;DHT22;18496;52.042;6.812;2023-05-07T07:43:25;18.90;99.90
31967;DHT22;18496;52.042;6.812;2023-05-07T07:45:29;18.90;99.90
31967;DHT22;18496;52.042;6.812;2023-05-07T07:47:33;18.90;99.90
31967;DHT22;18496;52.042;6.812;2023-05-07T07:49:37;18.90;99.90
31967;DHT22;18496;52.042;6.812;2023-05-07T07:51:43;19.00;99.90
31967;DHT22;18496;52.042;6.812;2023-05-07T07:53:48;19.00;99.90
31967;DHT22;18496;52.042;6.812;2023-05-07T07:55:52;19.00;99.90
31967;DHT22;18496;52.042;6.812;2023-05-07T07:57:58;19.10;99.90
31967;DHT22;18496;52.042;6.812;2023-05-07T08:00:03;19.10;99.90
31967;DHT22;18496;52.042;6.812;2023-05-07T08:02:09;19.10;99.90
31967;DHT22;18496;52.042;6.812;2023-05-07T08:04:13;19.10;99.90
31967;DHT22;18496;52.042;6.812;2023-05-07T08:06:19;19.10;99.90
31967;DHT22;18496;52.042;6.812;2023-05-07T08:08:23;19.10;99.90
31967;DHT22;18496;52.042;6.812;2023-05-07T08:10:28;19.10;99.90
31967;DHT22;18496;52.042;6.812;2023-05-07T08:12:38;19.20;99.90
31967;DHT22;18496;52.042;6.812;2023-05-07T08:14:41;19.20;99.90
31967;DHT22;18496;52.042;6.812;2023-05-07T08:16:46;19.20;99.90
31967;DHT22;18496;52.042;6.812;2023-05-07T08:18:51;19.30;99.90
31967;DHT22;18496;52.042;6.812;2023-05-07T08:20:55;19.30;99.90
31967;DHT22;18496;52.042;6.812;2023-05-07T08:23:01;19.30;99.90
31967;DHT22;18496;52.042;6.812;2023-05-07T08:25:05;19.30;99.90
31967;DHT22;18496;52.042;6.812;2023-05-07T08:27:09;19.30;99.90
31967;DHT22;18496;52.042;6.812;2023-05-07T08:29:13;19.40;99.90
31967;DHT22;18496;52.042;6.812;2023-05-07T08:31:17;19.40;99.90
31967;DHT22;18496;52.042;6.812;2023-05-07T08:33:22;19.40;99.90
31967;DHT22;18496;52.042;6.812;2023-05-07T08:35:26;19.50;99.90
31967;DHT22;18496;52.042;6.812;2023-05-07T08:37:30;19.50;99.90
31967;DHT22;18496;52.042;6.812;2023-05-07T08:39:34;19.50;99.90
31967;DHT22;18496;52.042;6.812;2023-05-07T08:41:40;19.50;99.90
31967;DHT22;18496;52.042;6.812;2023-05-07T08:43:48;19.50;99.90
31967;DHT22;18496;52.042;6.812;2023-05-07T08:45:54;19.60;99.90
31967;DHT22;18496;52.042;6.812;2023-05-07T08:48:02;19.60;99.90
31967;DHT22;18496;52.042;6.812;2023-05-07T08:50:11;19.70;99.90
31967;DHT22;18496;52.042;6.812;2023-05-07T08:52:15;19.70;99.90
31967;DHT22;18496;52.042;6.812;2023-05-07T08:54:21;19.70;99.90
31967;DHT22;18496;52.042;6.812;2023-05-07T08:56:25;19.80;99.90
31967;DHT22;18496;52.042;6.812;2023-05-07T08:58:30;19.80;99.90
31967;DHT22;18496;52.042;6.812;2023-05-07T09:00:36;19.90;99.90
31967;DHT22;18496;52.042;6.812;2023-05-07T09:02:40;19.90;99.90
31967;DHT22;18496;52.042;6.812;2023-05-07T09:04:46;19.90;99.90
31967;DHT22;18496;52.042;6.812;2023-05-07T09:06:49;19.90;99.90
31967;DHT22;18496;52.042;6.812;2023-05-07T09:08:57;19.90;99.90
31967;DHT22;18496;52.042;6.812;2023-05-07T09:11:05;20.00;99.90
31967;DHT22;18496;52.042;6.812;2023-05-07T09:13:09;20.00;99.90
31967;DHT22;18496;52.042;6.812;2023-05-07T09:15:17;20.10;99.90
31967;DHT22;18496;52.042;6.812;2023-05-07T09:17:21;20.20;99.90
31967;DHT22;18496;52.042;6.812;2023-05-07T09:19:26;20.20;99.90
31967;DHT22;18496;52.042;6.812;2023-05-07T09:21:31;20.20;99.90
31967;DHT22;18496;52.042;6.812;2023-05-07T09:23:38;20.30;99.90
31967;DHT22;18496;52.042;6.812;2023-05-07T09:25:43;20.40;99.90
31967;DHT22;18496;52.042;6.812;2023-05-07T09:27:53;20.40;99.90
31967;DHT22;18496;52.042;6.812;2023-05-07T09:29:56;20.50;99.90
31967;DHT22;18496;52.042;6.812;2023-05-07T09:32:00;20.50;99.90
31967;DHT22;18496;52.042;6.812;2023-05-07T09:34:05;20.60;99.90
31967;DHT22;18496;52.042;6.812;2023-05-07T09:36:10;20.70;99.90
31967;DHT22;18496;52.042;6.812;2023-05-07T09:38:17;20.80;99.90
31967;DHT22;18496;52.042;6.812;2023-05-07T09:40:24;20.80;99.90
31967;DHT22;18496;52.042;6.812;2023-05-07T09:42:29;20.80;99.90
31967;DHT22;18496;52.042;6.812;2023-05-07T09:44:38;20.80;99.90
31967;DHT22;18496;52.042;6.812;2023-05-07T09:46:51;20.90;99.90
31967;DHT22;18496;52.042;6.812;2023-05-07T09:49:02;21.00;99.90
31967;DHT22;18496;52.042;6.812;2023-05-07T09:51:30;21.00;99.90
31967;DHT22;18496;52.042;6.812;2023-05-07T09:53:37;21.10;99.90
31967;DHT22;18496;52.042;6.812;2023-05-07T09:55:42;21.20;99.90
31967;DHT22;18496;52.042;6.812;2023-05-07T09:57:51;21.20;99.90
31967;DHT22;18496;52.042;6.812;2023-05-07T09:59:56;21.30;99.90
31967;DHT22;18496;52.042;6.812;2023-05-07T10:02:01;21.30;99.90
31967;DHT22;18496;52.042;6.812;2023-05-07T10:04:06;21.30;99.90
31967;DHT22;18496;52.042;6.812;2023-05-07T10:06:13;21.30;99.90
31967;DHT22;18496;52.042;6.812;2023-05-07T10:08:17;21.30;99.90
31967;DHT22;18496;52.042;6.812;2023-05-07T10:10:25;21.40;99.90
31967;DHT22;18496;52.042;6.812;2023-05-07T10:12:30;21.50;99.90
31967;DHT22;18496;52.042;6.812;2023-05-07T10:14:41;21.60;99.90
31967;DHT22;18496;52.042;6.812;2023-05-07T10:16:47;21.70;99.90
31967;DHT22;18496;52.042;6.812;2023-05-07T10:18:54;21.80;99.90
31967;DHT22;18496;52.042;6.812;2023-05-07T10:21:08;21.80;99.90
31967;DHT22;18496;52.042;6.812;2023-05-07T10:23:20;21.90;99.90
31967;DHT22;18496;52.042;6.812;2023-05-07T10:25:29;22.00;99.90
31967;DHT22;18496;52.042;6.812;2023-05-07T10:27:36;22.10;99.90
31967;DHT22;18496;52.042;6.812;2023-05-07T10:30:03;22.10;99.80
31967;DHT22;18496;52.042;6.812;2023-05-07T10:34:34;22.30;99.50
31967;DHT22;18496;52.042;6.812;2023-05-07T10:36:39;22.40;99.60
31967;DHT22;18496;52.042;6.812;2023-05-07T10:38:44;22.40;99.70
31967;DHT22;18496;52.042;6.812;2023-05-07T10:40:50;22.50;99.70
31967;DHT22;18496;52.042;6.812;2023-05-07T10:42:55;22.60;99.80
31967;DHT22;18496;52.042;6.812;2023-05-07T10:45:12;22.70;99.70
31967;DHT22;18496;52.042;6.812;2023-05-07T10:47:17;22.80;99.30
31967;DHT22;18496;52.042;6.812;2023-05-07T10:49:24;22.90;99.40
31967;DHT22;18496;52.042;6.812;2023-05-07T10:51:35;23.00;99.30
31967;DHT22;18496;52.042;6.812;2023-05-07T10:53:47;23.00;98.80
31967;DHT22;18496;52.042;6.812;2023-05-07T10:58:27;23.00;98.30
31967;DHT22;18496;52.042;6.812;2023-05-07T11:05:21;23.20;98.30
31967;DHT22;18496;52.042;6.812;2023-05-07T11:07:30;23.30;97.80
31967;DHT22;18496;52.042;6.812;2023-05-07T11:11:56;23.30;97.80
31967;DHT22;18496;52.042;6.812;2023-05-07T11:17:02;23.30;96.90
31967;DHT22;18496;52.042;6.812;2023-05-07T11:19:07;23.40;97.20
31967;DHT22;18496;52.042;6.812;2023-05-07T11:26:06;23.50;96.40
31967;DHT22;18496;52.042;6.812;2023-05-07T11:28:10;23.60;96.00
31967;DHT22;18496;52.042;6.812;2023-05-07T11:30:18;23.60;95.90
31967;DHT22;18496;52.042;6.812;2023-05-07T11:32:30;23.60;96.20
31967;DHT22;18496;52.042;6.812;2023-05-07T11:34:34;23.70;96.30
31967;DHT22;18496;52.042;6.812;2023-05-07T11:36:42;23.70;96.40
31967;DHT22;18496;52.042;6.812;2023-05-07T11:38:49;23.80;96.40
31967;DHT22;18496;52.042;6.812;2023-05-07T11:40:56;23.90;96.10
31967;DHT22;18496;52.042;6.812;2023-05-07T11:43:10;23.90;96.10
31967;DHT22;18496;52.042;6.812;2023-05-07T11:45:23;24.10;95.80
31967;DHT22;18496;52.042;6.812;2023-05-07T11:47:30;24.10;95.70
31967;DHT22;18496;52.042;6.812;2023-05-07T11:49:34;24.20;95.00
31967;DHT22;18496;52.042;6.812;2023-05-07T11:51:38;24.30;95.30
31967;DHT22;18496;52.042;6.812;2023-05-07T11:53:43;24.40;94.60
31967;DHT22;18496;52.042;6.812;2023-05-07T11:55:46;24.40;94.50
31967;DHT22;18496;52.042;6.812;2023-05-07T11:57:50;24.50;94.10
31967;DHT22;18496;52.042;6.812;2023-05-07T11:59:55;24.60;94.10
31967;DHT22;18496;52.042;6.812;2023-05-07T12:01:59;24.60;94.00
31967;DHT22;18496;52.042;6.812;2023-05-07T12:04:03;24.60;94.10
31967;DHT22;18496;52.042;6.812;2023-05-07T12:06:08;24.60;94.50
31967;DHT22;18496;52.042;6.812;2023-05-07T12:08:16;24.60;93.80
31967;DHT22;18496;52.042;6.812;2023-05-07T12:10:20;24.70;93.70
31967;DHT22;18496;52.042;6.812;2023-05-07T12:12:23;24.70;93.40
31967;DHT22;18496;52.042;6.812;2023-05-07T12:14:27;24.80;94.00
31967;DHT22;18496;52.042;6.812;2023-05-07T12:16:32;24.80;93.40
31967;DHT22;18496;52.042;6.812;2023-05-07T12:18:37;24.80;93.90
31967;DHT22;18496;52.042;6.812;2023-05-07T12:20:40;24.80;93.60
31967;DHT22;18496;52.042;6.812;2023-05-07T12:22:44;24.90;92.80
31967;DHT22;18496;52.042;6.812;2023-05-07T12:24:56;24.90;93.20
31967;DHT22;18496;52.042;6.812;2023-05-07T12:27:00;25.00;93.80
31967;DHT22;18496;52.042;6.812;2023-05-07T12:29:03;25.00;93.90
31967;DHT22;18496;52.042;6.812;2023-05-07T12:31:07;25.00;93.40
31967;DHT22;18496;52.042;6.812;2023-05-07T12:33:11;25.10;93.50
31967;DHT22;18496;52.042;6.812;2023-05-07T12:35:15;25.20;93.20
31967;DHT22;18496;52.042;6.812;2023-05-07T12:37:25;25.30;93.20
31967;DHT22;18496;52.042;6.812;2023-05-07T12:39:29;25.40;92.90
31967;DHT22;18496;52.042;6.812;2023-05-07T12:41:56;25.40;92.40
31967;DHT22;18496;52.042;6.812;2023-05-07T12:44:00;25.50;92.50
31967;DHT22;18496;52.042;6.812;2023-05-07T12:46:05;25.60;92.40
31967;DHT22;18496;52.042;6.812;2023-05-07T12:48:10;25.60;92.00
31967;DHT22;18496;52.042;6.812;2023-05-07T12:50:15;25.70;92.00
31967;DHT22;18496;52.042;6.812;2023-05-07T12:52:20;25.70;91.70
31967;DHT22;18496;52.042;6.812;2023-05-07T12:54:38;25.80;92.10
31967;DHT22;18496;52.042;6.812;2023-05-07T12:56:41;25.80;90.80
31967;DHT22;18496;52.042;6.812;2023-05-07T12:58:45;25.80;91.40
31967;DHT22;18496;52.042;6.812;2023-05-07T13:00:52;25.80;91.60
31967;DHT22;18496;52.042;6.812;2023-05-07T13:02:55;25.80;91.40
31967;DHT22;18496;52.042;6.812;2023-05-07T13:04:59;25.80;91.40
31967;DHT22;18496;52.042;6.812;2023-05-07T13:07:03;25.80;90.70
31967;DHT22;18496;52.042;6.812;2023-05-07T13:09:06;25.90;91.30
31967;DHT22;18496;52.042;6.812;2023-05-07T13:11:11;26.00;91.10
31967;DHT22;18496;52.042;6.812;2023-05-07T13:13:15;26.00;90.70
31967;DHT22;18496;52.042;6.812;2023-05-07T13:15:18;26.00;90.60
31967;DHT22;18496;52.042;6.812;2023-05-07T13:17:22;26.00;90.30
31967;DHT22;18496;52.042;6.812;2023-05-07T13:19:26;26.00;90.30
31967;DHT22;18496;52.042;6.812;2023-05-07T13:21:30;26.00;90.50
31967;DHT22;18496;52.042;6.812;2023-05-07T13:23:35;26.00;89.80
31967;DHT22;18496;52.042;6.812;2023-05-07T13:25:39;26.00;89.90
31967;DHT22;18496;52.042;6.812;2023-05-07T13:27:43;25.90;90.20
31967;DHT22;18496;52.042;6.812;2023-05-07T13:29:46;25.90;89.70
31967;DHT22;18496;52.042;6.812;2023-05-07T13:31:50;25.90;89.70
31967;DHT22;18496;52.042;6.812;2023-05-07T13:33:54;25.90;88.70